Time;durP1;ratioP1;P1;durP2;ratioP2;P2;SDS_P1;SDS_P2;PMS_P1;PMS_P2;Temp;Humidity;BMP_temperature;BMP_pressure;BME280_temperature;BME280_humidity;BME280_pressure;Samples;Min_cycle;Max_cycle;Signal;HPM_P1;HPM_P2
2022/03/14 00:01:16;;;;;;;0.30;0.30;;;11.70;99.90;;;;;;5014815;28;20256;-93
2022/03/14 00:03:55;;;;;;;0.20;0.20;;;10.20;99.90;;;;;;5011137;28;20041;-93
2022/03/14 00:06:21;;;;;;;0.43;0.43;;;9.90;99.90;;;;;;5011118;28;20124;-93
2022/03/14 00:08:47;;;;;;;0.63;0.63;;;10.30;99.90;;;;;;5010631;28;20083;-93
2022/03/14 00:11:15;;;;;;;0.20;0.20;;;10.10;99.90;;;;;;5010637;28;20482;-93
2022/03/14 00:13:46;;;;;;;0.30;0.30;;;9.80;99.90;;;;;;5010824;28;20040;-93
2022/03/14 00:16:15;;;;;;;0.20;0.20;;;10.00;99.90;;;;;;5008813;28;20037;-93
2022/03/14 00:18:47;;;;;;;0.10;0.10;;;10.20;99.90;;;;;;5018738;28;20102;-90
2022/03/14 00:21:13;;;;;;;0.30;0.30;;;10.50;99.90;;;;;;5026824;28;20044;-93
2022/03/14 00:23:39;;;;;;;0.15;0.15;;;10.20;99.90;;;;;;5026984;28;20171;-93
2022/03/14 00:26:07;;;;;;;0.50;0.50;;;10.70;99.90;;;;;;5025937;28;20045;-93
2022/03/14 00:28:33;;;;;;;0.20;0.20;;;10.20;99.90;;;;;;5026878;28;20470;-93
2022/03/14 00:31:03;;;;;;;0.20;0.20;;;10.70;99.90;;;;;;5026273;28;20069;-93
2022/03/14 00:33:28;;;;;;;0.25;0.25;;;10.00;99.90;;;;;;5010646;28;20061;-93
2022/03/14 00:35:56;;;;;;;0.30;0.30;;;9.90;99.90;;;;;;5026324;28;20038;-93
2022/03/14 00:38:24;;;;;;;0.20;0.20;;;9.90;99.90;;;;;;5026854;28;20041;-93
2022/03/14 00:40:51;;;;;;;0.30;0.30;;;9.90;99.90;;;;;;5026422;28;20041;-94
2022/03/14 00:43:17;;;;;;;0.43;0.43;;;9.90;99.90;;;;;;5026962;28;20042;-93
2022/03/14 00:45:44;;;;;;;0.20;0.20;;;10.10;99.90;;;;;;5026172;28;20053;-94
2022/03/14 00:48:38;;;;;;;0.80;0.80;;;9.60;99.90;;;;;;5026308;28;20076;-91
2022/03/14 00:51:04;;;;;;;0.57;0.57;;;9.80;99.90;;;;;;5026480;28;20033;-93
2022/03/14 00:53:31;;;;;;;0.40;0.40;;;9.70;99.90;;;;;;5027328;28;20037;-94
2022/03/14 00:55:58;;;;;;;0.30;0.30;;;9.80;99.90;;;;;;5026751;28;20041;-93
2022/03/14 00:58:24;;;;;;;0.30;0.30;;;9.80;99.90;;;;;;5027169;28;20077;-95
2022/03/14 01:00:50;;;;;;;0.20;0.20;;;10.20;99.90;;;;;;5026716;28;20052;-93
2022/03/14 01:03:16;;;;;;;0.30;0.30;;;9.70;99.90;;;;;;5040209;28;20514;-93
2022/03/14 01:05:41;;;;;;;0.10;0.10;;;9.80;99.90;;;;;;5006749;28;20041;-94
2022/03/14 01:08:08;;;;;;;0.20;0.20;;;9.70;99.90;;;;;;5040253;28;20049;-94
2022/03/14 01:10:34;;;;;;;4.97;0.73;;;9.70;99.90;;;;;;5006762;28;20041;-93
2022/03/14 01:13:03;;;;;;;0.20;0.20;;;9.70;99.90;;;;;;5022951;28;20041;-92
2022/03/14 01:15:29;;;;;;;0.10;0.10;;;9.10;99.90;;;;;;5026407;28;20342;-92
2022/03/14 01:17:56;;;;;;;0.30;0.30;;;9.60;99.90;;;;;;5059191;28;20544;-93
2022/03/14 01:20:22;;;;;;;0.30;0.30;;;9.60;99.90;;;;;;5026527;28;20403;-93
2022/03/14 01:22:48;;;;;;;0.20;0.20;;;9.60;99.90;;;;;;5026567;28;20042;-93
2022/03/14 01:25:13;;;;;;;0.25;0.25;;;9.90;99.90;;;;;;5026152;28;20038;-93
2022/03/14 01:27:39;;;;;;;1.05;0.95;;;9.60;99.90;;;;;;5026326;28;20052;-93
2022/03/14 01:30:06;;;;;;;0.10;0.10;;;9.70;99.90;;;;;;5026191;28;20117;-93
2022/03/14 01:32:31;;;;;;;0.20;0.20;;;9.40;99.90;;;;;;5026042;28;20422;-92
2022/03/14 01:34:57;;;;;;;0.38;0.38;;;9.30;99.90;;;;;;5025938;28;20048;-92
2022/03/14 01:37:26;;;;;;;0.10;0.10;;;9.60;99.90;;;;;;5042902;28;20038;-93
2022/03/14 01:39:52;;;;;;;0.20;0.20;;;9.70;99.90;;;;;;5026372;28;20075;-93
2022/03/14 01:42:20;;;;;;;0.10;0.10;;;10.20;99.90;;;;;;5025633;28;20045;-92
2022/03/14 01:44:47;;;;;;;0.40;0.40;;;9.50;99.90;;;;;;5024510;28;20045;-93
2022/03/14 01:47:14;;;;;;;0.20;0.20;;;9.50;99.90;;;;;;5025018;28;20045;-93
2022/03/14 01:49:41;;;;;;;0.20;0.20;;;9.40;99.90;;;;;;5024959;28;20100;-92
2022/03/14 01:52:07;;;;;;;0.30;0.30;;;9.60;99.90;;;;;;5027824;28;20044;-93
2022/03/14 01:54:34;;;;;;;0.28;0.28;;;9.40;99.90;;;;;;5028475;28;20128;-93
2022/03/14 01:57:00;;;;;;;0.20;0.20;;;9.30;99.90;;;;;;5028027;28;20041;-93
2022/03/14 01:59:29;;;;;;;0.30;0.30;;;9.40;99.90;;;;;;5012521;28;20135;-93
2022/03/14 02:01:56;;;;;;;0.17;0.17;;;9.40;99.90;;;;;;5028090;28;20541;-92
2022/03/14 02:04:22;;;;;;;0.32;0.32;;;9.40;99.90;;;;;;5028352;28;20037;-93
2022/03/14 02:06:50;;;;;;;0.98;0.95;;;9.40;99.90;;;;;;5028502;28;20049;-93
2022/03/14 02:09:16;;;;;;;0.20;0.20;;;9.40;99.90;;;;;;5028877;28;20052;-91
2022/03/14 02:11:57;;;;;;;0.20;0.20;;;9.10;99.90;;;;;;5028503;28;20478;-92
2022/03/14 02:14:24;;;;;;;0.20;0.20;;;9.10;99.90;;;;;;5028715;28;20037;-92
2022/03/14 02:16:51;;;;;;;0.20;0.20;;;10.20;99.90;;;;;;5027942;28;20045;-92
2022/03/14 02:19:22;;;;;;;1.75;1.33;;;10.10;99.90;;;;;;5028443;28;20072;-92
2022/03/14 02:21:48;;;;;;;0.20;0.20;;;9.50;99.90;;;;;;5028169;28;20046;-93
2022/03/14 02:24:14;;;;;;;0.20;0.20;;;9.40;99.90;;;;;;5028897;28;20187;-93
2022/03/14 02:26:40;;;;;;;0.10;0.10;;;9.40;99.90;;;;;;5028427;28;20103;-94
2022/03/14 02:29:07;;;;;;;0.20;0.20;;;9.40;99.90;;;;;;5061218;28;20037;-94
2022/03/14 02:31:36;;;;;;;0.20;0.20;;;10.10;99.90;;;;;;5028530;28;20037;-93
2022/03/14 02:34:11;;;;;;;0.20;0.20;;;9.40;99.90;;;;;;5029382;28;20033;-93
2022/03/14 02:36:39;;;;;;;0.20;0.20;;;9.50;99.90;;;;;;5028668;28;20073;-93
2022/03/14 02:39:06;;;;;;;0.20;0.20;;;10.00;99.90;;;;;;5029370;28;20045;-94
2022/03/14 02:41:32;;;;;;;0.17;0.17;;;9.40;99.90;;;;;;5061890;28;20045;-93
2022/03/14 02:43:59;;;;;;;0.30;0.30;;;9.40;99.90;;;;;;5028526;28;20134;-94
2022/03/14 02:46:25;;;;;;;0.17;0.17;;;9.40;99.90;;;;;;5061122;28;20048;-93
2022/03/14 02:48:54;;;;;;;0.28;0.28;;;9.70;99.90;;;;;;5061814;28;20048;-92
2022/03/14 02:51:20;;;;;;;0.10;0.10;;;9.40;99.90;;;;;;5029227;28;20041;-94
2022/03/14 02:53:49;;;;;;;0.20;0.20;;;9.90;99.90;;;;;;5029197;28;20044;-94
2022/03/14 02:56:15;;;;;;;0.40;0.40;;;9.50;99.90;;;;;;5028418;28;20124;-94
2022/03/14 02:58:45;;;;;;;0.80;0.50;;;9.50;99.90;;;;;;5027681;28;20049;-94
2022/03/14 03:01:10;;;;;;;0.50;0.32;;;9.60;99.90;;;;;;5028563;28;20056;-93
2022/03/14 03:03:37;;;;;;;0.20;0.20;;;9.90;99.90;;;;;;5027219;28;20073;-93
2022/03/14 03:06:03;;;;;;;0.20;0.20;;;10.50;99.90;;;;;;5027752;28;20037;-93
2022/03/14 03:08:28;;;;;;;0.20;0.20;;;9.70;99.90;;;;;;5028362;28;20070;-94
2022/03/14 03:10:59;;;;;;;0.45;0.45;;;9.90;99.90;;;;;;5027645;28;20038;-92
2022/03/14 03:13:27;;;;;;;1.05;0.68;;;9.70;99.90;;;;;;5027999;28;20053;-93
2022/03/14 03:15:54;;;;;;;0.20;0.20;;;11.10;99.90;;;;;;5027106;28;20097;-93
2022/03/14 03:18:20;;;;;;;0.20;0.20;;;9.60;99.90;;;;;;5027567;28;20049;-93
2022/03/14 03:20:46;;;;;;;8.07;3.65;;;9.80;99.90;;;;;;5027704;28;20108;-94
2022/03/14 03:23:11;;;;;;;0.10;0.10;;;9.90;99.90;;;;;;5027406;28;20038;-92
2022/03/14 03:25:37;;;;;;;0.10;0.10;;;9.70;99.90;;;;;;5027008;28;20040;-94
2022/03/14 03:28:03;;;;;;;0.30;0.30;;;9.60;99.90;;;;;;5028034;28;20037;-93
2022/03/14 03:30:29;;;;;;;0.20;0.20;;;9.60;99.90;;;;;;5026673;28;20041;-93
2022/03/14 03:32:54;;;;;;;0.10;0.10;;;9.60;99.90;;;;;;5027198;28;20060;-92
2022/03/14 03:35:20;;;;;;;0.30;0.30;;;9.60;99.90;;;;;;5027033;28;20037;-93
2022/03/14 03:37:46;;;;;;;0.30;0.30;;;9.50;99.90;;;;;;5026694;28;20049;-93
2022/03/14 03:40:14;;;;;;;0.20;0.20;;;10.70;99.90;;;;;;5043836;28;20045;-93
2022/03/14 03:42:40;;;;;;;0.30;0.30;;;9.40;99.90;;;;;;5026891;28;20052;-92
2022/03/14 03:45:07;;;;;;;0.90;0.90;;;9.30;99.90;;;;;;5026900;28;20045;-93
2022/03/14 03:47:33;;;;;;;0.52;0.52;;;9.40;99.90;;;;;;5059750;28;20041;-92
2022/03/14 03:49:59;;;;;;;0.20;0.20;;;9.90;99.90;;;;;;5026736;28;20411;-93
2022/03/14 03:52:25;;;;;;;0.20;0.20;;;9.40;99.90;;;;;;5026949;28;20569;-92
2022/03/14 03:54:50;;;;;;;0.20;0.20;;;9.20;99.90;;;;;;5026169;28;20077;-92
2022/03/14 03:57:16;;;;;;;0.20;0.20;;;9.10;99.90;;;;;;5026049;28;20087;-93
2022/03/14 03:59:42;;;;;;;0.20;0.20;;;9.20;99.90;;;;;;5027334;28;20049;-92
2022/03/14 04:02:09;;;;;;;0.75;0.55;;;9.10;99.90;;;;;;5026902;28;20044;-93
2022/03/14 04:04:35;;;;;;;0.20;0.20;;;9.40;99.90;;;;;;5027141;28;20088;-93
2022/03/14 04:07:02;;;;;;;0.30;0.30;;;9.00;99.90;;;;;;5026907;28;20064;-93
2022/03/14 04:09:40;;;;;;;0.75;0.52;;;9.10;99.90;;;;;;5026941;28;20041;-92
2022/03/14 04:12:06;;;;;;;0.20;0.20;;;9.10;99.90;;;;;;5027043;28;20037;-92
2022/03/14 04:14:32;;;;;;;0.20;0.20;;;9.00;99.90;;;;;;5026582;28;20124;-93
2022/03/14 04:17:00;;;;;;;0.30;0.30;;;9.10;99.90;;;;;;5026403;28;20069;-93
2022/03/14 04:19:29;;;;;;;0.32;0.32;;;9.00;99.90;;;;;;5026528;28;20033;-92
2022/03/14 04:21:55;;;;;;;0.28;0.28;;;9.10;99.90;;;;;;5026779;28;20037;-93
2022/03/14 04:24:21;;;;;;;0.20;0.20;;;9.00;99.90;;;;;;5027521;28;20131;-93
2022/03/14 04:26:47;;;;;;;0.10;0.10;;;9.20;99.90;;;;;;5026784;28;20045;-92
2022/03/14 04:29:13;;;;;;;0.30;0.30;;;9.10;99.90;;;;;;5026770;28;20042;-93
2022/03/14 04:31:42;;;;;;;0.10;0.10;;;9.50;99.90;;;;;;5076078;28;20506;-92
2022/03/14 04:34:07;;;;;;;0.20;0.20;;;9.00;99.90;;;;;;5026983;28;20041;-92
2022/03/14 04:36:33;;;;;;;0.20;0.20;;;9.20;99.90;;;;;;5026428;28;20041;-93
2022/03/14 04:38:59;;;;;;;0.57;0.40;;;9.20;99.90;;;;;;5026834;28;20069;-92
2022/03/14 04:41:25;;;;;;;0.20;0.20;;;9.20;99.90;;;;;;5027043;28;20045;-93
2022/03/14 04:43:51;;;;;;;0.20;0.20;;;9.30;99.90;;;;;;5027108;28;20084;-92
2022/03/14 04:46:17;;;;;;;0.20;0.20;;;9.30;99.90;;;;;;5027184;28;20071;-92
2022/03/14 04:48:42;;;;;;;0.30;0.30;;;8.90;99.90;;;;;;5027052;28;20041;-92
2022/03/14 04:51:08;;;;;;;1.85;1.75;;;10.10;99.90;;;;;;5026654;28;20041;-93
2022/03/14 04:53:36;;;;;;;0.10;0.10;;;8.60;99.90;;;;;;5026831;28;20037;-92
2022/03/14 04:56:01;;;;;;;0.30;0.30;;;10.20;99.90;;;;;;5026562;28;20046;-93
2022/03/14 04:58:27;;;;;;;0.20;0.20;;;9.20;99.90;;;;;;5026311;28;20565;-93
2022/03/14 05:00:54;;;;;;;0.30;0.30;;;9.30;99.90;;;;;;5022704;28;20041;-92
2022/03/14 05:03:19;;;;;;;0.40;0.40;;;9.10;99.90;;;;;;5022722;28;20033;-93
2022/03/14 05:05:45;;;;;;;0.30;0.30;;;9.10;99.90;;;;;;5030460;28;20043;-92
2022/03/14 05:08:11;;;;;;;0.20;0.20;;;9.20;99.90;;;;;;5027443;28;20044;-92
2022/03/14 05:10:37;;;;;;;0.50;0.50;;;9.10;99.90;;;;;;5025324;28;20037;-93
2022/03/14 05:13:03;;;;;;;0.20;0.20;;;8.90;99.90;;;;;;5025807;28;20041;-94
2022/03/14 05:15:30;;;;;;;0.20;0.20;;;9.00;99.90;;;;;;5045156;28;20041;-93
2022/03/14 05:17:57;;;;;;;0.22;0.22;;;9.00;99.90;;;;;;5020989;28;20033;-92
2022/03/14 05:20:23;;;;;;;0.30;0.30;;;8.70;99.90;;;;;;5025975;28;20509;-92
2022/03/14 05:22:49;;;;;;;0.20;0.20;;;9.00;99.90;;;;;;5062754;28;20096;-94
2022/03/14 05:25:20;;;;;;;0.40;0.40;;;9.00;99.90;;;;;;5036756;28;20064;-93
2022/03/14 05:27:46;;;;;;;0.70;0.52;;;9.40;99.90;;;;;;5031134;28;20090;-93
2022/03/14 05:30:12;;;;;;;0.20;0.20;;;9.10;99.90;;;;;;5062159;28;20041;-93
2022/03/14 05:32:42;;;;;;;0.52;0.52;;;9.10;99.90;;;;;;5036621;28;20040;-93
2022/03/14 05:35:11;;;;;;;1.23;0.77;;;9.00;99.90;;;;;;5032406;28;20045;-92
2022/03/14 05:37:40;;;;;;;0.28;0.28;;;9.70;99.90;;;;;;5020766;28;20376;-93
2022/03/14 05:40:07;;;;;;;0.60;0.60;;;9.20;99.90;;;;;;5041545;28;20037;-93
2022/03/14 05:42:33;;;;;;;0.30;0.30;;;9.20;99.90;;;;;;5043343;28;20811;-94
2022/03/14 05:44:59;;;;;;;0.20;0.20;;;9.20;99.90;;;;;;5021441;28;20041;-93
2022/03/14 05:47:28;;;;;;;0.38;0.38;;;9.10;99.90;;;;;;5025739;28;20044;-92
2022/03/14 05:49:54;;;;;;;0.28;0.28;;;9.50;99.90;;;;;;5076499;28;20065;-94
2022/03/14 05:52:21;;;;;;;0.30;0.30;;;9.10;99.90;;;;;;5043750;28;20042;-94
2022/03/14 05:54:50;;;;;;;1.27;0.65;;;9.90;99.90;;;;;;5041731;28;20036;-93
2022/03/14 05:57:16;;;;;;;1.73;1.63;;;9.10;99.90;;;;;;5045776;28;20037;-93
2022/03/14 05:59:42;;;;;;;0.30;0.30;;;9.10;99.90;;;;;;5024563;28;20101;-94
2022/03/14 06:02:10;;;;;;;0.30;0.30;;;9.20;99.90;;;;;;5027887;28;20037;-94
2022/03/14 06:04:37;;;;;;;0.28;0.28;;;10.10;99.90;;;;;;5059791;28;20037;-92
2022/03/14 06:07:09;;;;;;;0.20;0.20;;;9.30;99.90;;;;;;5028580;28;20071;-93
2022/03/14 06:09:36;;;;;;;0.20;0.20;;;9.80;99.90;;;;;;5058123;28;20048;-93
2022/03/14 06:12:02;;;;;;;1.45;0.65;;;9.10;99.90;;;;;;5033003;28;20041;-92
2022/03/14 06:14:28;;;;;;;0.55;0.50;;;8.90;99.90;;;;;;5045254;28;20069;-92
2022/03/14 06:16:53;;;;;;;0.73;0.73;;;9.10;99.90;;;;;;5043122;28;20069;-92
2022/03/14 06:19:20;;;;;;;0.22;0.22;;;9.00;99.90;;;;;;5032194;28;20048;-93
2022/03/14 06:21:46;;;;;;;0.32;0.32;;;8.90;99.90;;;;;;5037908;28;20042;-94
2022/03/14 06:24:12;;;;;;;0.40;0.30;;;8.80;99.90;;;;;;5029433;28;20489;-92
2022/03/14 06:26:38;;;;;;;0.47;0.45;;;8.90;99.90;;;;;;5029448;28;20045;-93
2022/03/14 06:29:05;;;;;;;0.40;0.40;;;9.00;99.90;;;;;;5032039;28;20055;-92
2022/03/14 06:31:31;;;;;;;0.30;0.30;;;9.00;99.90;;;;;;5034050;28;20033;-92
2022/03/14 06:33:57;;;;;;;0.60;0.60;;;8.90;99.90;;;;;;5048754;28;20044;-92
2022/03/14 06:36:25;;;;;;;0.93;0.70;;;9.00;99.90;;;;;;5026508;28;20041;-92
2022/03/14 06:38:51;;;;;;;0.20;0.20;;;8.90;99.90;;;;;;5078348;28;20490;-93
2022/03/14 06:41:18;;;;;;;1.30;0.73;;;8.90;99.90;;;;;;5043081;28;20079;-93
2022/03/14 06:43:44;;;;;;;0.35;0.35;;;9.00;99.90;;;;;;5002809;28;20041;-92
2022/03/14 06:46:10;;;;;;;0.30;0.30;;;9.20;99.90;;;;;;5027451;28;20051;-92
2022/03/14 06:48:40;;;;;;;0.30;0.30;;;9.00;99.90;;;;;;5034703;28;20045;-92
2022/03/14 06:51:08;;;;;;;0.32;0.32;;;9.10;99.90;;;;;;5049181;28;20040;-93
2022/03/14 06:53:34;;;;;;;0.35;0.35;;;9.00;99.90;;;;;;5047600;28;20044;-91
2022/03/14 06:55:59;;;;;;;0.30;0.30;;;9.10;99.90;;;;;;5021895;28;20048;-91
2022/03/14 06:58:26;;;;;;;0.98;0.70;;;9.10;99.90;;;;;;5033005;28;20094;-92
2022/03/14 07:00:52;;;;;;;0.50;0.50;;;9.10;99.90;;;;;;5060947;28;20100;-91
2022/03/14 07:03:19;;;;;;;0.50;0.50;;;9.10;99.90;;;;;;5045359;28;20064;-90
2022/03/14 07:05:46;;;;;;;0.40;0.40;;;9.80;99.90;;;;;;5041922;28;20041;-93
2022/03/14 07:08:12;;;;;;;0.20;0.20;;;9.10;99.90;;;;;;5043522;28;20375;-93
2022/03/14 07:10:38;;;;;;;0.10;0.10;;;10.70;99.90;;;;;;5046114;28;20509;-90
2022/03/14 07:13:04;;;;;;;1.05;0.90;;;8.70;99.90;;;;;;5036676;28;20037;-91
2022/03/14 07:15:30;;;;;;;0.22;0.22;;;9.20;99.90;;;;;;5029616;28;20549;-91
2022/03/14 07:17:56;;;;;;;1.73;1.35;;;9.20;99.90;;;;;;5038731;28;20044;-94
2022/03/14 07:20:28;;;;;;;2.58;0.75;;;9.20;99.90;;;;;;5049219;28;20037;-95
2022/03/14 07:23:00;;;;;;;0.80;0.43;;;9.20;99.90;;;;;;5037798;28;20183;-94
2022/03/14 07:25:40;;;;;;;0.65;0.35;;;9.70;99.90;;;;;;5037064;28;20061;-94
2022/03/14 07:28:08;;;;;;;0.30;0.30;;;9.30;99.90;;;;;;5044010;28;20037;-90
2022/03/14 07:30:38;;;;;;;0.20;0.20;;;9.20;99.90;;;;;;5012820;28;20041;-93
2022/03/14 07:33:04;;;;;;;0.38;0.30;;;10.60;99.90;;;;;;5026608;28;20071;-92
2022/03/14 07:35:30;;;;;;;0.15;0.15;;;9.20;99.90;;;;;;5023915;28;20042;-91
2022/03/14 07:37:58;;;;;;;1.58;0.82;;;9.30;99.90;;;;;;5070202;28;20047;-90
2022/03/14 07:40:27;;;;;;;0.38;0.38;;;9.30;99.90;;;;;;5039576;28;20065;-94
2022/03/14 07:42:54;;;;;;;1.35;0.98;;;9.60;99.90;;;;;;5047448;28;20037;-93
2022/03/14 07:45:24;;;;;;;1.45;1.17;;;9.00;99.90;;;;;;5076906;28;20045;-91
2022/03/14 07:47:49;;;;;;;1.38;0.50;;;9.30;99.90;;;;;;5036517;28;20037;-90
2022/03/14 07:50:16;;;;;;;0.60;0.25;;;9.30;99.90;;;;;;5038960;28;20055;-89
2022/03/14 07:52:42;;;;;;;1.67;0.70;;;9.80;99.90;;;;;;5028698;28;20045;-90
2022/03/14 07:55:09;;;;;;;6.53;1.15;;;9.30;99.90;;;;;;5026764;28;20044;-90
2022/03/14 07:57:36;;;;;;;0.60;0.52;;;9.20;99.90;;;;;;5053230;28;20068;-92
2022/03/14 08:00:05;;;;;;;1.58;1.25;;;9.30;99.90;;;;;;5037374;28;20052;-95
2022/03/14 08:02:31;;;;;;;0.30;0.30;;;9.20;99.90;;;;;;5044208;28;20049;-94
2022/03/14 08:04:56;;;;;;;2.08;1.23;;;8.90;99.90;;;;;;5047383;28;20045;-93
2022/03/14 08:07:23;;;;;;;4.18;1.80;;;10.00;99.90;;;;;;5045963;28;20067;-92
2022/03/14 08:09:50;;;;;;;3.05;1.95;;;9.20;99.90;;;;;;5047067;28;20045;-90
2022/03/14 08:12:16;;;;;;;3.42;2.30;;;9.20;99.90;;;;;;5033937;28;20033;-91
2022/03/14 08:14:43;;;;;;;1.98;1.27;;;9.30;99.90;;;;;;5046014;28;20044;-92
2022/03/14 08:17:08;;;;;;;1.77;1.20;;;9.10;99.90;;;;;;5037571;28;20032;-90
2022/03/14 08:19:34;;;;;;;3.72;2.03;;;9.10;99.90;;;;;;5032914;28;20410;-94
2022/03/14 08:22:04;;;;;;;5.45;2.67;;;9.10;99.90;;;;;;5043905;28;20049;-93
2022/03/14 08:24:30;;;;;;;2.80;1.58;;;9.00;99.90;;;;;;5042596;28;20045;-94
2022/03/14 08:26:56;;;;;;;6.03;3.22;;;9.00;99.90;;;;;;5035698;28;20071;-94
2022/03/14 08:29:23;;;;;;;6.95;3.00;;;9.40;99.90;;;;;;5047921;28;20041;-94
2022/03/14 08:31:52;;;;;;;3.13;2.17;;;8.90;99.90;;;;;;5047661;28;20103;-94
2022/03/14 08:34:18;;;;;;;4.32;2.58;;;9.30;99.90;;;;;;5054096;28;20041;-95
2022/03/14 08:36:47;;;;;;;1.83;1.05;;;9.40;99.90;;;;;;5036151;28;20041;-95
2022/03/14 08:39:13;;;;;;;2.70;1.55;;;9.40;99.90;;;;;;5027806;28;20063;-92
2022/03/14 08:41:44;;;;;;;5.18;2.60;;;9.00;99.90;;;;;;5028055;28;20037;-96
2022/03/14 08:44:16;;;;;;;4.40;2.00;;;8.90;99.90;;;;;;5038506;28;20102;-93
2022/03/14 08:46:42;;;;;;;4.50;1.92;;;8.70;99.90;;;;;;5023600;28;20077;-95
2022/03/14 08:49:08;;;;;;;22.10;2.95;;;8.80;99.90;;;;;;5041192;28;20100;-92
2022/03/14 08:51:34;;;;;;;12.82;4.30;;;8.60;99.90;;;;;;5033795;28;20044;-92
2022/03/14 08:54:03;;;;;;;5.55;2.30;;;8.60;99.90;;;;;;5025490;28;20213;-92
2022/03/14 08:56:29;;;;;;;4.63;2.20;;;8.70;99.90;;;;;;5035666;28;20044;-95
2022/03/14 08:58:54;;;;;;;5.35;1.92;;;8.10;99.90;;;;;;5033756;28;20052;-89
2022/03/14 09:01:20;;;;;;;1.70;0.80;;;8.70;99.90;;;;;;5034193;28;20032;-89
2022/03/14 09:03:45;;;;;;;6.00;3.10;;;8.60;99.90;;;;;;5029508;28;20053;-91
2022/03/14 09:06:11;;;;;;;1.23;0.93;;;9.10;99.90;;;;;;5047441;28;20051;-94
2022/03/14 09:08:37;;;;;;;3.30;2.28;;;9.00;99.90;;;;;;5049224;28;20109;-90
2022/03/14 09:11:03;;;;;;;5.53;2.22;;;8.60;99.90;;;;;;5041782;28;20034;-91
2022/03/14 09:13:29;;;;;;;1.05;0.95;;;8.70;99.90;;;;;;5041612;28;20033;-91
2022/03/14 09:15:55;;;;;;;3.65;1.65;;;8.80;99.90;;;;;;5048975;28;20114;-93
2022/03/14 09:18:31;;;;;;;3.70;1.55;;;8.60;99.90;;;;;;5053313;28;20034;-90
2022/03/14 09:20:57;;;;;;;2.67;1.17;;;8.80;99.90;;;;;;5040404;28;20059;-91
2022/03/14 09:23:26;;;;;;;1.27;0.80;;;8.80;99.90;;;;;;5047529;28;20132;-91
2022/03/14 09:25:52;;;;;;;5.85;2.38;;;8.90;99.90;;;;;;5048458;28;20041;-91
2022/03/14 09:28:20;;;;;;;2.83;1.45;;;8.70;99.90;;;;;;5051309;28;20033;-89
2022/03/14 09:30:54;;;;;;;3.92;1.80;;;8.90;99.90;;;;;;5030644;28;20037;-95
2022/03/14 09:33:27;;;;;;;5.53;2.58;;;8.90;99.90;;;;;;5011837;28;20034;-94
2022/03/14 09:35:54;;;;;;;1.83;1.17;;;9.00;99.90;;;;;;5027316;28;20113;-93
2022/03/14 09:38:20;;;;;;;4.90;1.70;;;9.40;99.90;;;;;;5034766;28;20154;-94
2022/03/14 09:40:50;;;;;;;7.05;1.77;;;9.10;99.90;;;;;;5047331;28;20064;-93
2022/03/14 09:43:17;;;;;;;6.13;1.95;;;8.70;99.90;;;;;;5029739;28;20045;-93
2022/03/14 09:45:49;;;;;;;6.07;3.90;;;9.70;99.90;;;;;;5036723;28;20079;-92
2022/03/14 09:48:36;;;;;;;2.45;1.25;;;9.20;99.90;;;;;;5050566;28;20052;-94
2022/03/14 09:51:18;;;;;;;3.70;2.15;;;9.20;99.90;;;;;;5042717;28;20045;-94
2022/03/14 09:53:49;;;;;;;1.98;0.90;;;9.20;99.90;;;;;;5049624;28;20044;-92
2022/03/14 09:56:15;;;;;;;0.68;0.68;;;9.50;99.90;;;;;;5041820;28;20033;-92
2022/03/14 09:58:44;;;;;;;1.17;1.00;;;9.30;99.90;;;;;;5031001;28;20033;-88
2022/03/14 10:01:10;;;;;;;4.28;0.85;;;10.80;99.90;;;;;;5026635;28;20033;-90
2022/03/14 10:03:36;;;;;;;2.72;1.35;;;9.80;99.90;;;;;;5029329;28;20478;-90
2022/03/14 10:06:03;;;;;;;2.53;2.05;;;9.30;99.90;;;;;;5029017;28;20091;-92
2022/03/14 10:08:30;;;;;;;4.28;1.02;;;9.20;99.90;;;;;;5044443;28;20072;-90
2022/03/14 10:10:56;;;;;;;0.55;0.55;;;9.30;99.90;;;;;;5025192;28;20094;-90
2022/03/14 10:13:22;;;;;;;1.25;1.15;;;9.30;99.90;;;;;;5041918;28;20115;-89
2022/03/14 10:15:48;;;;;;;0.60;0.60;;;9.30;99.90;;;;;;5045504;28;20044;-90
2022/03/14 10:18:16;;;;;;;0.95;0.68;;;9.40;99.90;;;;;;5043409;28;20045;-89
2022/03/14 10:20:57;;;;;;;3.58;1.15;;;9.60;99.90;;;;;;5039978;28;20037;-91
2022/03/14 10:23:52;;;;;;;7.05;1.40;;;9.40;99.90;;;;;;5022598;28;20092;-90
2022/03/14 10:26:33;;;;;;;5.47;1.33;;;9.50;99.90;;;;;;5000939;28;20114;-93
2022/03/14 10:29:03;;;;;;;5.05;1.00;;;9.40;99.90;;;;;;5041507;28;20072;-93
2022/03/14 10:31:36;;;;;;;1.40;0.57;;;9.70;99.90;;;;;;5029195;28;20034;-92
2022/03/14 10:34:12;;;;;;;4.15;0.57;;;9.60;99.90;;;;;;5032284;28;20072;-93
2022/03/14 10:36:38;;;;;;;;;;;9.60;99.90;;;;;;5038888;28;20045;-93
2022/03/14 10:39:20;;;;;;;2.60;1.65;;;9.60;99.90;;;;;;5033161;28;19998;-94
2022/03/14 10:42:01;;;;;;;1.27;0.98;;;9.70;99.90;;;;;;5048473;28;20041;-93
2022/03/14 10:44:27;;;;;;;0.90;0.70;;;9.90;99.90;;;;;;5037250;28;20509;-90
2022/03/14 10:46:53;;;;;;;4.60;0.82;;;9.90;99.90;;;;;;5023311;28;20037;-89
2022/03/14 10:49:26;;;;;;;0.50;0.50;;;10.00;99.90;;;;;;5027467;28;20029;-89
2022/03/14 10:51:55;;;;;;;1.50;1.02;;;10.00;99.90;;;;;;5058377;28;20052;-89
2022/03/14 10:54:21;;;;;;;2.17;0.93;;;10.10;99.90;;;;;;5029763;28;20043;-89
2022/03/14 10:57:06;;;;;;;2.83;0.73;;;10.20;99.90;;;;;;5022539;28;20069;-90
2022/03/14 10:59:37;;;;;;;7.47;1.63;;;10.20;99.90;;;;;;5024875;28;20038;-90
2022/03/14 11:02:07;;;;;;;5.07;1.17;;;10.30;99.90;;;;;;5028168;28;20051;-89
2022/03/14 11:04:43;;;;;;;0.93;0.65;;;10.20;99.90;;;;;;5022355;28;20129;-90
2022/03/14 11:07:10;;;;;;;2.67;1.25;;;10.50;99.90;;;;;;5063848;28;20076;-90
2022/03/14 11:09:49;;;;;;;3.53;0.98;;;10.30;99.90;;;;;;5039325;28;20502;-91
2022/03/14 11:12:17;;;;;;;2.30;1.67;;;10.30;99.90;;;;;;5022814;28;20479;-89
2022/03/14 11:14:51;;;;;;;0.82;0.65;;;10.80;99.90;;;;;;5022916;28;20065;-89
2022/03/14 11:17:23;;;;;;;4.07;2.10;;;10.50;99.90;;;;;;5035630;28;20034;-89
2022/03/14 11:19:53;;;;;;;2.00;1.00;;;10.60;99.90;;;;;;5003545;28;20399;-90
2022/03/14 11:22:20;;;;;;;6.07;2.22;;;10.50;99.90;;;;;;5018699;28;20111;-88
2022/03/14 11:24:52;;;;;;;1.55;1.13;;;10.60;99.90;;;;;;5014948;28;20038;-93
2022/03/14 11:27:28;;;;;;;3.50;1.45;;;10.60;99.90;;;;;;5024638;28;20040;-94
2022/03/14 11:30:10;;;;;;;3.40;2.15;;;10.60;99.90;;;;;;5044780;28;20044;-93
2022/03/14 11:32:37;;;;;;;4.75;2.72;;;10.50;99.90;;;;;;5032964;28;20037;-93
2022/03/14 11:35:08;;;;;;;8.32;3.00;;;10.50;99.90;;;;;;5030954;28;20047;-93
2022/03/14 11:37:35;;;;;;;1.80;1.20;;;10.60;99.90;;;;;;5029267;28;20101;-93
2022/03/14 11:40:03;;;;;;;4.78;2.47;;;10.40;99.90;;;;;;5022627;28;20516;-93
2022/03/14 11:42:30;;;;;;;5.40;3.72;;;11.50;99.90;;;;;;5014844;28;20097;-94
2022/03/14 11:44:56;;;;;;;3.20;1.98;;;10.70;99.90;;;;;;5027427;28;20482;-94
2022/03/14 11:47:23;;;;;;;1.40;1.17;;;10.70;99.90;;;;;;5012463;28;20041;-91
2022/03/14 11:49:49;;;;;;;6.35;2.50;;;11.00;99.90;;;;;;5015914;28;20105;-93
2022/03/14 11:52:24;;;;;;;3.33;1.88;;;10.20;99.90;;;;;;5014219;28;20037;-92
2022/03/14 11:54:59;;;;;;;4.78;2.58;;;10.80;99.90;;;;;;5031457;28;20037;-94
2022/03/14 11:57:36;;;;;;;7.00;3.25;;;10.90;99.90;;;;;;5031487;28;20100;-91
2022/03/14 12:00:21;;;;;;;5.68;2.78;;;10.90;99.90;;;;;;5031654;28;20045;-92
2022/03/14 12:02:57;;;;;;;13.60;4.27;;;10.80;99.90;;;;;;4997844;28;20101;-93
2022/03/14 12:05:35;;;;;;;3.40;1.88;;;11.00;99.90;;;;;;5035242;28;20041;-91
2022/03/14 12:08:07;;;;;;;5.68;3.53;;;11.10;99.90;;;;;;5013291;28;20110;-87
2022/03/14 12:10:36;;;;;;;3.33;2.03;;;11.70;99.90;;;;;;4994445;28;20142;-88
2022/03/14 12:13:06;;;;;;;9.20;4.03;;;11.50;99.90;;;;;;5014714;28;20029;-91
2022/03/14 12:15:48;;;;;;;5.50;2.83;;;11.40;99.90;;;;;;5013531;28;20056;-91
2022/03/14 12:18:25;;;;;;;7.28;4.15;;;12.70;99.90;;;;;;5011840;28;20037;-94
2022/03/14 12:20:59;;;;;;;6.28;2.50;;;11.90;99.90;;;;;;5025277;28;20077;-93
2022/03/14 12:23:31;;;;;;;7.22;3.55;;;11.70;99.90;;;;;;5032559;28;20112;-95
2022/03/14 12:26:21;;;;;;;6.88;3.80;;;11.70;99.90;;;;;;5025979;28;20128;-94
2022/03/14 12:28:52;;;;;;;6.88;2.95;;;11.70;99.90;;;;;;5011998;28;20045;-90
2022/03/14 12:31:18;;;;;;;7.43;3.65;;;11.80;99.90;;;;;;5013584;28;20034;-93
2022/03/14 12:33:49;;;;;;;2.50;1.77;;;11.80;99.90;;;;;;5007493;28;20744;-91
2022/03/14 12:36:23;;;;;;;10.02;3.53;;;11.90;99.90;;;;;;5020020;28;20848;-92
2022/03/14 12:39:10;;;;;;;8.93;4.03;;;11.90;99.90;;;;;;5009344;28;20045;-91
2022/03/14 12:41:37;;;;;;;8.75;3.42;;;11.90;99.90;;;;;;5029612;28;20179;-93
2022/03/14 12:44:27;;;;;;;5.97;3.30;;;12.10;99.90;;;;;;5020818;28;20060;-90
2022/03/14 12:46:56;;;;;;;10.15;3.78;;;12.20;99.90;;;;;;5027953;28;20646;-94
2022/03/14 12:49:26;;;;;;;4.90;2.97;;;12.30;99.90;;;;;;5030528;28;20048;-94
2022/03/14 12:52:12;;;;;;;5.88;3.47;;;12.30;99.90;;;;;;5025305;28;20040;-95
2022/03/14 12:54:38;;;;;;;2.95;1.58;;;12.50;99.90;;;;;;5022037;28;20037;-90
2022/03/14 12:57:05;;;;;;;6.13;2.90;;;12.50;99.90;;;;;;5021877;28;20576;-93
2022/03/14 12:59:41;;;;;;;3.60;2.47;;;12.50;99.90;;;;;;5038465;28;20135;-95
2022/03/14 13:02:22;;;;;;;2.45;1.52;;;12.60;99.90;;;;;;5014841;28;20041;-94